createdAt,value
2023-01-15T00:01:29.386Z,44.66
2023-01-15T00:04:03.862Z,44.67
2023-01-15T00:06:38.621Z,44.70
2023-01-15T00:09:16.296Z,44.67
2023-01-15T00:11:48.257Z,44.64
2023-01-15T00:14:20.154Z,44.64
2023-01-15T00:16:53.210Z,44.57
2023-01-15T00:19:25.115Z,44.61
2023-01-15T00:21:58.485Z,44.61
2023-01-15T00:24:49.114Z,44.39
2023-01-15T00:27:39.173Z,44.27
2023-01-15T00:30:13.895Z,44.34
2023-01-15T00:32:45.817Z,44.38
2023-01-15T00:35:20.947Z,44.41
2023-01-15T00:37:53.170Z,44.38
2023-01-15T00:40:25.088Z,44.47
2023-01-15T00:42:57.003Z,44.58
2023-01-15T00:45:28.916Z,44.67
2023-01-15T00:48:01.223Z,44.80
2023-01-15T00:50:33.102Z,44.91
2023-01-15T00:53:05.164Z,44.98
2023-01-15T00:55:37.061Z,44.98
2023-01-15T00:58:08.960Z,44.97
2023-01-15T01:00:40.980Z,45.03
2023-01-15T01:03:12.896Z,45.11
2023-01-15T01:05:44.745Z,45.18
2023-01-15T01:08:17.168Z,45.19
2023-01-15T01:10:49.076Z,45.32
2023-01-15T01:13:21.012Z,45.37
2023-01-15T01:15:52.874Z,45.45
2023-01-15T01:18:24.934Z,45.46
2023-01-15T01:20:57.135Z,45.45
2023-01-15T01:23:29.835Z,45.50
2023-01-15T01:26:02.170Z,45.52
2023-01-15T01:28:34.131Z,45.60
2023-01-15T01:31:07.216Z,45.65
2023-01-15T01:33:39.123Z,45.70
2023-01-15T01:36:11.227Z,45.78
2023-01-15T01:38:43.254Z,45.77
2023-01-15T01:41:17.697Z,45.78
2023-01-15T01:44:03.283Z,45.77
2023-01-15T01:46:36.604Z,45.76
2023-01-15T01:49:11.476Z,45.74
2023-01-15T01:51:45.974Z,45.74
2023-01-15T01:54:20.554Z,45.76
2023-01-15T01:56:52.662Z,45.84
2023-01-15T01:59:25.383Z,45.91
2023-01-15T02:01:58.446Z,45.95
2023-01-15T02:04:30.872Z,45.90
2023-01-15T02:07:04.722Z,45.95
2023-01-15T02:09:36.645Z,46.01
2023-01-15T02:12:24.065Z,46.06
2023-01-15T02:15:15.993Z,46.06
2023-01-15T02:18:02.296Z,46.16
2023-01-15T02:20:42.777Z,46.19
2023-01-15T02:23:23.890Z,46.20
2023-01-15T02:26:01.683Z,46.16
2023-01-15T02:28:36.506Z,46.19
2023-01-15T02:31:11.439Z,46.27
2023-01-15T02:34:02.359Z,46.32
2023-01-15T02:36:39.506Z,46.27
2023-01-15T02:39:15.506Z,46.34
2023-01-15T02:41:52.206Z,46.35
2023-01-15T02:44:25.740Z,46.34
2023-01-15T02:46:59.852Z,46.43
2023-01-15T02:49:33.330Z,46.51
2023-01-15T02:52:11.295Z,46.49
2023-01-15T02:54:47.935Z,46.50
2023-01-15T02:57:22.424Z,46.47
2023-01-15T03:00:01.067Z,46.49
2023-01-15T03:02:37.985Z,46.44
2023-01-15T03:05:15.731Z,46.49
2023-01-15T03:07:52.422Z,46.50
2023-01-15T03:10:46.583Z,46.46
2023-01-15T03:13:29.832Z,46.38
2023-01-15T03:16:24.293Z,46.44
2023-01-15T03:19:06.184Z,46.49
2023-01-15T03:21:50.027Z,46.55
2023-01-15T03:24:45.614Z,46.57
2023-01-15T03:27:18.349Z,46.58
2023-01-15T03:30:01.348Z,46.50
2023-01-15T03:32:34.065Z,46.38
2023-01-15T03:35:29.476Z,46.35
2023-01-15T03:38:01.712Z,46.35
2023-01-15T03:40:34.430Z,46.37
2023-01-15T03:43:30.050Z,46.30
2023-01-15T03:46:06.924Z,46.31
2023-01-15T03:49:10.579Z,46.32
2023-01-15T03:51:54.383Z,46.27
2023-01-15T03:54:55.108Z,46.28
2023-01-15T03:57:39.029Z,46.34
2023-01-15T04:00:24.115Z,46.40
2023-01-15T04:02:57.946Z,46.46
2023-01-15T04:05:32.532Z,46.48
2023-01-15T04:08:04.491Z,46.48
2023-01-15T04:10:36.857Z,46.41
2023-01-15T04:13:09.919Z,46.47
2023-01-15T04:15:43.385Z,46.45
2023-01-15T04:18:15.550Z,46.41
2023-01-15T04:20:48.340Z,46.47
2023-01-15T04:23:20.723Z,46.47
2023-01-15T04:25:53.843Z,46.49
2023-01-15T04:28:25.795Z,46.57
2023-01-15T04:30:58.195Z,46.59
2023-01-15T04:33:30.244Z,46.57
2023-01-15T04:36:03.686Z,46.55
2023-01-15T04:38:38.304Z,46.55
2023-01-15T04:41:29.864Z,46.55
2023-01-15T04:44:07.528Z,46.50
2023-01-15T04:46:45.291Z,46.51
2023-01-15T04:49:18.369Z,46.54
2023-01-15T04:51:50.280Z,46.60
2023-01-15T04:54:23.040Z,46.70
2023-01-15T04:56:55.682Z,46.72
2023-01-15T04:59:28.173Z,46.71
2023-01-15T05:02:06.020Z,46.69
2023-01-15T05:04:38.725Z,46.65
2023-01-15T05:07:10.674Z,46.65
2023-01-15T05:09:42.726Z,46.62
2023-01-15T05:12:14.711Z,46.62
2023-01-15T05:14:46.684Z,46.58
2023-01-15T05:17:18.818Z,46.66
2023-01-15T05:19:50.745Z,46.78
2023-01-15T05:22:22.666Z,46.86
2023-01-15T05:24:54.558Z,46.85
2023-01-15T05:27:26.479Z,46.79
2023-01-15T05:29:58.745Z,46.64
2023-01-15T05:32:31.366Z,46.54
2023-01-15T05:35:03.419Z,46.39
2023-01-15T05:37:35.315Z,46.26
2023-01-15T05:40:08.720Z,46.07
2023-01-15T05:42:40.589Z,45.84
2023-01-15T05:45:12.543Z,45.63
2023-01-15T05:47:44.479Z,45.42
2023-01-15T05:50:16.840Z,45.23
2023-01-15T05:52:48.744Z,45.06
2023-01-15T05:55:20.687Z,44.82
2023-01-15T05:57:52.539Z,44.64
2023-01-15T06:00:26.167Z,44.49
2023-01-15T06:02:58.629Z,44.31
2023-01-15T06:05:30.597Z,44.16
2023-01-15T06:08:02.487Z,43.99
2023-01-15T06:10:34.468Z,43.86
2023-01-15T06:13:06.339Z,43.72
2023-01-15T06:15:38.430Z,43.59
2023-01-15T06:18:11.129Z,43.45
2023-01-15T06:20:43.081Z,43.31
2023-01-15T06:23:15.015Z,43.18
2023-01-15T06:25:47.092Z,43.06
2023-01-15T06:28:19.191Z,42.98
2023-01-15T06:30:51.141Z,42.88
2023-01-15T06:33:23.332Z,42.79
2023-01-15T06:35:55.200Z,42.70
2023-01-15T06:38:27.117Z,42.62
2023-01-15T06:41:01.227Z,42.51
2023-01-15T06:43:51.444Z,42.41
2023-01-15T06:46:41.824Z,42.40
2023-01-15T06:49:13.739Z,42.35
2023-01-15T06:51:45.730Z,42.08
2023-01-15T06:54:17.611Z,41.72
2023-01-15T06:56:49.715Z,41.71
2023-01-15T06:59:21.680Z,41.83
2023-01-15T07:01:53.860Z,41.92
2023-01-15T07:04:26.006Z,41.87
2023-01-15T07:06:57.960Z,41.77
2023-01-15T07:09:29.875Z,41.52
2023-01-15T07:12:01.835Z,41.35
2023-01-15T07:14:33.716Z,41.28
2023-01-15T07:17:05.707Z,41.32
2023-01-15T07:19:37.736Z,41.24
2023-01-15T07:22:10.549Z,41.17
2023-01-15T07:24:42.342Z,41.29
2023-01-15T07:27:14.277Z,41.50
2023-01-15T07:29:46.446Z,41.24
2023-01-15T07:32:18.813Z,41.19
2023-01-15T07:34:50.671Z,41.16
2023-01-15T07:37:22.510Z,41.11
2023-01-15T07:39:54.387Z,41.15
2023-01-15T07:42:44.676Z,41.11
2023-01-15T07:45:35.482Z,41.13
2023-01-15T07:48:29.815Z,41.12
2023-01-15T07:51:01.728Z,40.70
2023-01-15T07:53:33.605Z,40.63
2023-01-15T07:56:05.864Z,40.62
2023-01-15T07:58:37.705Z,40.62
2023-01-15T08:01:09.704Z,40.61
2023-01-15T08:03:41.813Z,40.62
2023-01-15T08:06:13.720Z,40.64
2023-01-15T08:08:46.024Z,40.88
2023-01-15T08:11:36.567Z,40.96
2023-01-15T08:14:28.824Z,40.88
2023-01-15T08:17:00.766Z,41.39
2023-01-15T08:19:32.805Z,41.68
2023-01-15T08:22:04.721Z,41.49
2023-01-15T08:24:36.684Z,41.66
2023-01-15T08:27:08.827Z,41.82
2023-01-15T08:29:40.953Z,41.68
2023-01-15T08:32:12.820Z,41.58
2023-01-15T08:34:44.763Z,41.52
2023-01-15T08:37:16.681Z,41.31
2023-01-15T08:39:48.550Z,41.21
2023-01-15T08:42:21.512Z,41.02
2023-01-15T08:44:53.413Z,40.86
2023-01-15T08:47:25.278Z,40.73
2023-01-15T08:49:57.164Z,40.68
2023-01-15T08:52:29.223Z,40.56
2023-01-15T08:55:01.133Z,40.34
2023-01-15T08:57:33.070Z,40.30
2023-01-15T09:00:06.632Z,40.16
2023-01-15T09:02:38.546Z,40.07
2023-01-15T09:05:10.441Z,39.99
2023-01-15T09:07:42.467Z,39.96
2023-01-15T09:10:14.667Z,39.78
2023-01-15T09:12:46.910Z,39.77
2023-01-15T09:15:18.871Z,39.66
2023-01-15T09:17:50.864Z,39.55
2023-01-15T09:20:23.078Z,39.45
2023-01-15T09:22:55.475Z,39.34
2023-01-15T09:25:27.430Z,39.28
2023-01-15T09:27:59.349Z,39.22
2023-01-15T09:30:31.540Z,39.08
2023-01-15T09:33:03.767Z,39.05
2023-01-15T09:35:35.693Z,38.95
2023-01-15T09:38:07.622Z,38.85
2023-01-15T09:40:57.583Z,38.82
2023-01-15T09:43:55.785Z,38.83
2023-01-15T09:46:40.654Z,38.74
2023-01-15T09:49:27.901Z,38.77
2023-01-15T09:52:29.511Z,38.87
2023-01-15T09:55:20.815Z,38.97
2023-01-15T09:57:55.708Z,39.05
2023-01-15T10:00:33.049Z,39.19
2023-01-15T10:03:04.975Z,39.15
2023-01-15T10:05:52.943Z,39.09
2023-01-15T10:08:41.563Z,39.02
2023-01-15T10:11:16.533Z,39.09
2023-01-15T10:14:08.311Z,39.00
2023-01-15T10:16:40.247Z,39.08
2023-01-15T10:19:12.223Z,39.00
2023-01-15T10:21:48.367Z,39.02
2023-01-15T10:24:20.204Z,38.92
2023-01-15T10:26:57.678Z,38.99
2023-01-15T10:29:57.392Z,38.98
2023-01-15T10:33:02.067Z,39.07
2023-01-15T10:35:44.162Z,39.14
2023-01-15T10:38:45.290Z,39.07
2023-01-15T10:41:32.455Z,39.01
2023-01-15T10:44:15.305Z,38.96
2023-01-15T10:46:54.687Z,38.84
2023-01-15T10:49:31.130Z,38.76
2023-01-15T10:52:12.656Z,38.76
2023-01-15T10:54:50.363Z,38.82
2023-01-15T10:57:42.485Z,38.92
2023-01-15T11:00:14.704Z,38.98
2023-01-15T11:03:08.475Z,38.97
2023-01-15T11:05:41.082Z,39.11
2023-01-15T11:09:06.638Z,39.03
2023-01-15T11:11:19.221Z,39.14
2023-01-15T11:14:14.617Z,39.12
2023-01-15T11:17:05.419Z,39.16
2023-01-15T11:19:40.547Z,39.19
2023-01-15T11:22:20.543Z,39.17
2023-01-15T11:24:55.141Z,39.19
2023-01-15T11:27:30.611Z,39.24
2023-01-15T11:30:07.111Z,39.25
2023-01-15T11:32:39.294Z,39.24
2023-01-15T11:35:16.928Z,39.17
2023-01-15T11:37:49.066Z,39.17
2023-01-15T11:40:24.636Z,39.17
2023-01-15T11:43:14.763Z,39.18
2023-01-15T11:46:10.242Z,39.22
2023-01-15T11:49:05.813Z,39.23
2023-01-15T11:51:48.738Z,39.21
2023-01-15T11:54:20.776Z,39.22
2023-01-15T11:56:52.813Z,39.22
2023-01-15T11:59:25.485Z,39.27
2023-01-15T12:02:00.692Z,39.42
2023-01-15T12:04:55.398Z,39.60
2023-01-15T12:07:27.332Z,39.81
2023-01-15T12:10:10.595Z,40.05
2023-01-15T12:12:45.467Z,40.10
2023-01-15T12:15:33.761Z,39.89
2023-01-15T12:18:42.920Z,39.88
2023-01-15T12:21:33.601Z,39.81
2023-01-15T12:24:32.772Z,39.73
2023-01-15T12:27:43.372Z,39.63
2023-01-15T12:30:27.065Z,39.60
2023-01-15T12:33:12.139Z,39.47
2023-01-15T12:35:49.168Z,39.39
2023-01-15T12:38:27.819Z,39.27
2023-01-15T12:41:04.195Z,39.23
2023-01-15T12:43:55.072Z,39.28
2023-01-15T12:46:29.835Z,39.28
2023-01-15T12:49:08.402Z,39.27
2023-01-15T12:51:50.845Z,39.35
2023-01-15T12:54:31.505Z,39.47
2023-01-15T12:57:35.763Z,39.68
2023-01-15T13:00:33.375Z,39.93
2023-01-15T13:03:23.613Z,40.13
2023-01-15T13:06:00.442Z,40.31
2023-01-15T13:08:41.750Z,40.63
2023-01-15T13:11:13.788Z,40.68
2023-01-15T13:13:58.376Z,40.86
2023-01-15T13:16:38.798Z,40.92
2023-01-15T13:19:25.930Z,41.02
2023-01-15T13:22:02.139Z,40.98
2023-01-15T13:24:55.206Z,41.01
2023-01-15T13:27:34.882Z,40.96
2023-01-15T13:30:25.137Z,40.98
2023-01-15T13:33:05.185Z,40.81
2023-01-15T13:35:47.035Z,40.63
2023-01-15T13:38:21.851Z,40.33
2023-01-15T13:40:55.507Z,40.38
2023-01-15T13:43:33.010Z,40.39
2023-01-15T13:46:07.034Z,40.30
2023-01-15T13:48:49.047Z,40.27
2023-01-15T13:51:43.360Z,40.22
2023-01-15T13:54:18.843Z,40.20
2023-01-15T13:56:50.708Z,40.14
2023-01-15T13:59:38.996Z,40.11
2023-01-15T14:02:30.644Z,40.13
2023-01-15T14:05:24.032Z,40.07
2023-01-15T14:07:55.931Z,40.06
2023-01-15T14:10:31.067Z,40.00
2023-01-15T14:13:02.995Z,39.95
2023-01-15T14:15:57.167Z,39.90
2023-01-15T14:18:38.023Z,39.89
2023-01-15T14:21:09.894Z,39.84
2023-01-15T14:24:00.209Z,39.80
2023-01-15T14:26:56.141Z,39.76
2023-01-15T14:29:40.137Z,39.73
2023-01-15T14:32:34.581Z,39.66
2023-01-15T14:35:16.682Z,39.64
2023-01-15T14:37:53.125Z,39.61
2023-01-15T14:40:25.845Z,39.61
2023-01-15T14:43:09.417Z,39.62
2023-01-15T14:45:41.806Z,39.78
2023-01-15T14:48:18.984Z,39.79
2023-01-15T14:50:52.908Z,39.67
2023-01-15T14:53:38.758Z,39.62
2023-01-15T14:56:24.804Z,39.67
2023-01-15T14:59:19.505Z,39.71
2023-01-15T15:01:55.262Z,39.72
2023-01-15T15:04:33.832Z,39.71
2023-01-15T15:07:22.832Z,39.74
2023-01-15T15:10:17.481Z,39.78
2023-01-15T15:13:22.913Z,39.81
2023-01-15T15:16:08.868Z,39.78
2023-01-15T15:19:01.687Z,39.80
2023-01-15T15:21:37.719Z,39.81
2023-01-15T15:24:18.505Z,39.80
2023-01-15T15:26:50.767Z,39.79
2023-01-15T15:29:23.175Z,39.82
2023-01-15T15:32:00.044Z,39.84
2023-01-15T15:34:40.497Z,39.94
2023-01-15T15:37:18.898Z,40.06
2023-01-15T15:40:15.189Z,40.00
2023-01-15T15:43:19.509Z,39.97
2023-01-15T15:46:12.443Z,40.13
2023-01-15T15:48:54.034Z,40.23
2023-01-15T15:51:31.007Z,40.28
2023-01-15T15:54:28.216Z,40.29
2023-01-15T15:57:18.567Z,40.27
2023-01-15T15:59:52.396Z,40.28
2023-01-15T16:02:38.100Z,40.25
2023-01-15T16:05:21.218Z,40.27
2023-01-15T16:07:53.479Z,40.31
2023-01-15T16:10:29.666Z,40.31
2023-01-15T16:13:05.523Z,40.47
2023-01-15T16:15:40.511Z,40.51
2023-01-15T16:18:27.056Z,40.55
2023-01-15T16:20:59.400Z,40.55
2023-01-15T16:23:31.543Z,40.54
2023-01-15T16:26:19.992Z,40.52
2023-01-15T16:29:00.219Z,40.47
2023-01-15T16:31:36.601Z,40.45
2023-01-15T16:34:17.183Z,40.42
2023-01-15T16:36:49.139Z,40.37
2023-01-15T16:39:30.787Z,40.40
2023-01-15T16:42:02.663Z,40.42
2023-01-15T16:44:52.090Z,40.42
2023-01-15T16:47:35.077Z,40.43
2023-01-15T16:50:22.235Z,40.39
2023-01-15T16:52:55.747Z,40.33
2023-01-15T16:55:47.030Z,40.18
2023-01-15T16:58:33.103Z,40.14
2023-01-15T17:01:33.803Z,40.10
2023-01-15T17:04:30.927Z,40.09
2023-01-15T17:07:04.190Z,40.06
2023-01-15T17:09:37.708Z,40.05
2023-01-15T17:12:27.578Z,40.03
2023-01-15T17:15:20.151Z,40.05
2023-01-15T17:17:53.528Z,40.01
2023-01-15T17:20:27.983Z,40.00
2023-01-15T17:22:59.967Z,40.00
2023-01-15T17:25:33.785Z,40.01
2023-01-15T17:28:05.793Z,40.03
2023-01-15T17:30:37.934Z,40.04
2023-01-15T17:33:10.871Z,40.02
2023-01-15T17:35:42.931Z,40.08
2023-01-15T17:38:16.853Z,40.11
2023-01-15T17:40:50.698Z,40.14
2023-01-15T17:43:22.602Z,40.15
2023-01-15T17:45:54.539Z,40.19
2023-01-15T17:48:26.533Z,40.20
2023-01-15T17:51:03.022Z,40.22
2023-01-15T17:53:36.256Z,40.27
2023-01-15T17:56:27.337Z,40.29
2023-01-15T17:59:17.640Z,40.33
2023-01-15T18:02:08.488Z,40.37
2023-01-15T18:05:05.768Z,40.46
2023-01-15T18:07:41.126Z,40.53
2023-01-15T18:10:21.002Z,40.60
2023-01-15T18:12:53.080Z,40.60
2023-01-15T18:15:24.984Z,40.64
2023-01-15T18:17:56.936Z,40.66
2023-01-15T18:20:28.834Z,40.66
2023-01-15T18:23:00.725Z,40.69
2023-01-15T18:25:34.368Z,40.74
2023-01-15T18:28:06.237Z,40.77
2023-01-15T18:30:38.352Z,40.74
2023-01-15T18:33:10.281Z,40.86
2023-01-15T18:35:42.201Z,40.83
2023-01-15T18:38:14.093Z,40.93
2023-01-15T18:40:46.011Z,40.98
2023-01-15T18:43:36.806Z,40.99
2023-01-15T18:46:27.182Z,40.97
2023-01-15T18:48:59.132Z,41.00
2023-01-15T18:51:31.021Z,41.01
2023-01-15T18:54:03.120Z,40.99
2023-01-15T18:56:42.897Z,40.97
2023-01-15T18:59:15.762Z,40.95
2023-01-15T19:01:47.626Z,40.96
2023-01-15T19:04:20.501Z,40.90
2023-01-15T19:06:52.384Z,40.86
2023-01-15T19:09:24.578Z,40.81
2023-01-15T19:11:57.057Z,40.76
2023-01-15T19:14:47.567Z,40.71
2023-01-15T19:17:42.391Z,40.69
2023-01-15T19:20:18.346Z,40.66
2023-01-15T19:22:59.315Z,40.64
2023-01-15T19:25:39.030Z,40.59
2023-01-15T19:28:16.649Z,40.57
2023-01-15T19:31:08.247Z,40.53
2023-01-15T19:33:40.278Z,40.50
2023-01-15T19:36:12.218Z,40.44
2023-01-15T19:38:44.154Z,40.40
2023-01-15T19:41:34.849Z,40.36
2023-01-15T19:44:25.638Z,40.35
2023-01-15T19:47:16.541Z,40.31
2023-01-15T19:50:06.873Z,40.29
2023-01-15T19:52:38.979Z,40.27
2023-01-15T19:55:12.276Z,40.19
2023-01-15T19:57:46.831Z,40.14
2023-01-15T20:00:19.537Z,40.13
2023-01-15T20:02:51.691Z,40.11
2023-01-15T20:05:24.819Z,40.09
2023-01-15T20:07:57.396Z,40.09
2023-01-15T20:10:30.361Z,40.12
2023-01-15T20:13:21.113Z,40.09
2023-01-15T20:15:53.054Z,40.10
2023-01-15T20:18:24.981Z,40.08
2023-01-15T20:20:56.990Z,40.08
2023-01-15T20:23:29.002Z,40.08
2023-01-15T20:26:06.186Z,40.10
2023-01-15T20:28:40.319Z,40.13
2023-01-15T20:31:19.372Z,40.16
2023-01-15T20:33:51.317Z,40.19
2023-01-15T20:36:23.257Z,40.21
2023-01-15T20:38:55.133Z,40.22
2023-01-15T20:42:05.604Z,40.27
2023-01-15T20:44:55.860Z,40.27
2023-01-15T20:47:47.134Z,40.31
2023-01-15T20:50:19.182Z,40.33
2023-01-15T20:52:52.953Z,40.36
2023-01-15T20:55:31.211Z,40.39
2023-01-15T20:58:05.387Z,40.41
2023-01-15T21:00:37.157Z,40.42
2023-01-15T21:03:10.974Z,40.44
2023-01-15T21:05:42.899Z,40.50
2023-01-15T21:08:15.196Z,40.54
2023-01-15T21:10:54.966Z,40.56
2023-01-15T21:13:27.068Z,40.57
2023-01-15T21:16:01.863Z,40.60
2023-01-15T21:18:37.577Z,40.63
2023-01-15T21:21:11.347Z,40.66
2023-01-15T21:23:45.955Z,40.69
2023-01-15T21:26:18.152Z,40.71
2023-01-15T21:28:54.540Z,40.73
2023-01-15T21:31:26.499Z,40.73
2023-01-15T21:33:59.001Z,40.76
2023-01-15T21:36:30.922Z,40.80
2023-01-15T21:39:04.165Z,40.90
2023-01-15T21:41:54.725Z,40.90
2023-01-15T21:44:36.168Z,40.92
2023-01-15T21:47:11.014Z,40.98
2023-01-15T21:49:43.476Z,41.11
2023-01-15T21:52:17.876Z,41.06
2023-01-15T21:54:50.328Z,41.02
2023-01-15T21:57:22.659Z,41.01
2023-01-15T21:59:54.568Z,41.03
2023-01-15T22:02:28.145Z,41.11
2023-01-15T22:05:00.541Z,41.16
2023-01-15T22:07:32.498Z,41.26
2023-01-15T22:10:04.973Z,41.34
2023-01-15T22:12:42.194Z,41.41
2023-01-15T22:15:16.002Z,41.50
2023-01-15T22:17:51.747Z,41.61
2023-01-15T22:20:23.796Z,41.62
2023-01-15T22:22:55.786Z,41.65
2023-01-15T22:25:27.665Z,41.66
2023-01-15T22:27:59.841Z,41.63
2023-01-15T22:30:31.760Z,41.65
2023-01-15T22:33:03.802Z,41.67
2023-01-15T22:35:35.705Z,41.71
2023-01-15T22:38:07.989Z,41.70
2023-01-15T22:40:39.957Z,41.74
2023-01-15T22:43:11.851Z,41.75
2023-01-15T22:45:43.932Z,41.73
2023-01-15T22:48:15.926Z,41.74
2023-01-15T22:50:47.898Z,41.79
2023-01-15T22:53:19.799Z,41.79
2023-01-15T22:55:59.277Z,41.82
2023-01-15T22:58:31.215Z,41.84
2023-01-15T23:01:03.405Z,41.90
2023-01-15T23:03:36.497Z,41.91
2023-01-15T23:06:10.867Z,41.92
2023-01-15T23:08:42.815Z,41.97
2023-01-15T23:11:16.380Z,41.99
2023-01-15T23:13:48.460Z,42.00
2023-01-15T23:16:21.690Z,42.04
2023-01-15T23:18:53.605Z,42.07
2023-01-15T23:21:26.411Z,42.12
2023-01-15T23:23:58.695Z,42.12
2023-01-15T23:26:32.791Z,42.04
2023-01-15T23:29:05.344Z,42.15
2023-01-15T23:31:37.316Z,42.17
2023-01-15T23:34:10.807Z,42.19
2023-01-15T23:36:42.685Z,42.24
2023-01-15T23:39:14.572Z,42.26
2023-01-15T23:42:05.570Z,42.29
2023-01-15T23:44:55.956Z,42.32
2023-01-15T23:47:27.904Z,42.35
2023-01-15T23:49:59.759Z,42.45
2023-01-15T23:52:32.141Z,42.52
2023-01-15T23:55:04.254Z,42.55
2023-01-15T23:57:36.173Z,42.57
